Wind Star — C6CA9 — position and weather

sailwx.info

Track history (hours):
 
Tides and Currents Weather Stations Pressure Air Temp Water Temp Dewpoint Dewpoint Depression Visibility Wind Speed Wind Dir Waves Ship Positions

Wind Star

Operator: Holland America Line

Last reported at 2015-May-03 19:33 UTC. Time now 2015-May-03 19:55 UTC.
Position N 37°16' E 025°04'.

Length 135 m; draft 4.1 m.

Type: Ship. MMSI: 309163000.

Date/timePositionNaut miles runAvg speedWind from/ knotsBaromVisibWave heightAir tempDewpointWater temp
2015-May-03 19:33N 37°16' E 025°04'8 7.6
2015-May-03 18:33N 37°23' E 025°08'6 6.4
2015-May-03 17:34N 37°27' E 025°14'4 4.2
2015-May-03 16:32N 37°27' E 025°19'0 0.0
2015-May-03 15:32N 37°27' E 025°19'0 0.0
2015-May-03 14:31N 37°27' E 025°19'0 0.0
2015-May-03 13:31N 37°27' E 025°19'0 0.0
2015-May-03 12:32N 37°27' E 025°19'0 0.0
2015-May-03 11:31N 37°27' E 025°19'0 0.0
2015-May-03 10:32N 37°27' E 025°19'0 0.0
2015-May-03 09:32N 37°27' E 025°19'0 0.0
2015-May-03 08:32N 37°27' E 025°19'0 0.0
2015-May-03 07:32N 37°27' E 025°19'0 0.0
2015-May-03 06:32N 37°27' E 025°19'0 0.0
2015-May-03 05:32N 37°27' E 025°19'0 0.0
2015-May-03 04:28N 37°27' E 025°19'3 3.7
2015-May-03 03:33N 37°28' E 025°15'6 6.0
2015-May-03 02:33N 37°30' E 025°08'6 6.0
2015-May-03 01:33N 37°31' E 025°00'7 6.7
2015-May-03 00:33N 37°32' E 024°52'6 6.5
2015-May-02 23:33N 37°30' E 024°44'42 7.0
2015-May-02 17:32N 37°35' E 023°52'8 7.7
2015-May-02 16:33N 37°39' E 023°43'7 7.2
2015-May-02 15:33N 37°45' E 023°39'9 8.7
2015-May-02 14:33N 37°54' E 023°37'3 2.4
2015-May-02 13:25N 37°56' E 023°38'0 0.0
2015-May-02 12:31N 37°56' E 023°38'0 0.0
2015-May-02 11:31N 37°56' E 023°38'0 0.0
2015-May-02 10:31N 37°56' E 023°38'0 0.0
2015-May-02 09:31N 37°56' E 023°38'0 0.0
2015-May-02 08:28N 37°56' E 023°38'0 0.0
2015-May-02 07:31N 37°56' E 023°38'0 0.0
2015-May-02 06:31N 37°56' E 023°38'0 0.0
2015-May-02 05:31N 37°56' E 023°38'0 0.0
2015-May-02 04:28N 37°56' E 023°38'1 0.9
2015-May-02 03:33N 37°56' E 023°37'4 4.1
2015-May-02 02:33N 37°52' E 023°38'6 5.6
2015-May-02 01:33N 37°47' E 023°41'5 5.4
2015-May-02 00:33N 37°42' E 023°44'8 6.5
2015-May-01 23:24N 37°35' E 023°45'6 6.9
2015-May-01 22:33N 37°29' E 023°45'7 6.8
2015-May-01 21:33N 37°22' E 023°44'23 6.9
2015-May-01 18:12N 37°03' E 023°29'6 8.0
2015-May-01 17:24N 36°59' E 023°22'  
2015-Apr-26 18:33N 40°11' E 014°20'1110.8
2015-Apr-26 17:33N 40°21' E 014°16'1110.7
2015-Apr-26 16:33N 40°31' E 014°11'3 3.0
2015-Apr-26 15:23N 40°34' E 014°14'0 0.0
2015-Apr-26 14:33N 40°34' E 014°14'0 0.0
2015-Apr-26 13:33N 40°34' E 014°14'0 0.0
2015-Apr-26 12:33N 40°34' E 014°14'0 0.0
2015-Apr-26 11:33N 40°34' E 014°14'0 0.0
2015-Apr-26 10:33N 40°34' E 014°14'0 0.0
2015-Apr-26 09:33N 40°34' E 014°14'0 0.0
2015-Apr-26 08:33N 40°34' E 014°14'2 2.2
2015-Apr-26 07:32N 40°35' E 014°11'7 6.9
2015-Apr-26 06:32N 40°36' E 014°02'7 7.6
2015-Apr-26 05:33N 40°37' E 013°52'8 7.8
2015-Apr-26 04:33N 40°41' E 013°44'8 8.0
2015-Apr-26 03:33N 40°47' E 013°37'9 7.5
2015-Apr-26 02:24N 40°53' E 013°29'179 5.2
2015-Apr-24 16:11N 42°53' E 010°29'5 7.9
2015-Apr-24 15:32N 42°52' E 010°23'5 0.5
2015-Apr-24 04:08N 42°52' E 010°15'4 6.7
2015-Apr-24 03:31N 42°52' E 010°10'  
Track history (hours):
 
Tides and Currents Weather Stations Pressure Air Temp Water Temp Dewpoint Dewpoint Depression Visibility Wind Speed Wind Dir Waves Ship Positions

Wind Star

Operator: Holland America Line

Last reported at 2015-May-03 19:33 UTC. Time now 2015-May-03 19:55 UTC.
Position N 37°16' E 025°04'.

Length 135 m; draft 4.1 m.

Type: Ship. MMSI: 309163000.

Date/timePositionNaut miles runAvg speedWind from/ knotsBaromVisibWave heightAir tempDewpointWater temp
2015-May-03 19:33N 37°16' E 025°04'8 7.6
2015-May-03 18:33N 37°23' E 025°08'6 6.4
2015-May-03 17:34N 37°27' E 025°14'4 4.2
2015-May-03 16:32N 37°27' E 025°19'0 0.0
2015-May-03 15:32N 37°27' E 025°19'0 0.0
2015-May-03 14:31N 37°27' E 025°19'0 0.0
2015-May-03 13:31N 37°27' E 025°19'0 0.0
2015-May-03 12:32N 37°27' E 025°19'0 0.0
2015-May-03 11:31N 37°27' E 025°19'0 0.0
2015-May-03 10:32N 37°27' E 025°19'0 0.0
2015-May-03 09:32N 37°27' E 025°19'0 0.0
2015-May-03 08:32N 37°27' E 025°19'0 0.0
2015-May-03 07:32N 37°27' E 025°19'0 0.0
2015-May-03 06:32N 37°27' E 025°19'0 0.0
2015-May-03 05:32N 37°27' E 025°19'0 0.0
2015-May-03 04:28N 37°27' E 025°19'3 3.7
2015-May-03 03:33N 37°28' E 025°15'6 6.0
2015-May-03 02:33N 37°30' E 025°08'6 6.0
2015-May-03 01:33N 37°31' E 025°00'7 6.7
2015-May-03 00:33N 37°32' E 024°52'6 6.5
2015-May-02 23:33N 37°30' E 024°44'42 7.0
2015-May-02 17:32N 37°35' E 023°52'8 7.7
2015-May-02 16:33N 37°39' E 023°43'7 7.2
2015-May-02 15:33N 37°45' E 023°39'9 8.7
2015-May-02 14:33N 37°54' E 023°37'3 2.4
2015-May-02 13:25N 37°56' E 023°38'0 0.0
2015-May-02 12:31N 37°56' E 023°38'0 0.0
2015-May-02 11:31N 37°56' E 023°38'0 0.0
2015-May-02 10:31N 37°56' E 023°38'0 0.0
2015-May-02 09:31N 37°56' E 023°38'0 0.0
2015-May-02 08:28N 37°56' E 023°38'0 0.0
2015-May-02 07:31N 37°56' E 023°38'0 0.0
2015-May-02 06:31N 37°56' E 023°38'0 0.0
2015-May-02 05:31N 37°56' E 023°38'0 0.0
2015-May-02 04:28N 37°56' E 023°38'1 0.9
2015-May-02 03:33N 37°56' E 023°37'4 4.1
2015-May-02 02:33N 37°52' E 023°38'6 5.6
2015-May-02 01:33N 37°47' E 023°41'5 5.4
2015-May-02 00:33N 37°42' E 023°44'8 6.5
2015-May-01 23:24N 37°35' E 023°45'6 6.9
2015-May-01 22:33N 37°29' E 023°45'7 6.8
2015-May-01 21:33N 37°22' E 023°44'23 6.9
2015-May-01 18:12N 37°03' E 023°29'6 8.0
2015-May-01 17:24N 36°59' E 023°22'  
2015-Apr-26 18:33N 40°11' E 014°20'1110.8
2015-Apr-26 17:33N 40°21' E 014°16'1110.7
2015-Apr-26 16:33N 40°31' E 014°11'3 3.0
2015-Apr-26 15:23N 40°34' E 014°14'0 0.0
2015-Apr-26 14:33N 40°34' E 014°14'0 0.0
2015-Apr-26 13:33N 40°34' E 014°14'0 0.0
2015-Apr-26 12:33N 40°34' E 014°14'0 0.0
2015-Apr-26 11:33N 40°34' E 014°14'0 0.0
2015-Apr-26 10:33N 40°34' E 014°14'0 0.0
2015-Apr-26 09:33N 40°34' E 014°14'0 0.0
2015-Apr-26 08:33N 40°34' E 014°14'2 2.2
2015-Apr-26 07:32N 40°35' E 014°11'7 6.9
2015-Apr-26 06:32N 40°36' E 014°02'7 7.6
2015-Apr-26 05:33N 40°37' E 013°52'8 7.8
2015-Apr-26 04:33N 40°41' E 013°44'8 8.0
2015-Apr-26 03:33N 40°47' E 013°37'9 7.5
2015-Apr-26 02:24N 40°53' E 013°29'179 5.2
2015-Apr-24 16:11N 42°53' E 010°29'5 7.9
2015-Apr-24 15:32N 42°52' E 010°23'5 0.5
2015-Apr-24 04:08N 42°52' E 010°15'4 6.7
2015-Apr-24 03:31N 42°52' E 010°10'  

Dump ship's entire track history